sensor_id;sensor_type;location;lat;lon;timestamp;P1;durP1;ratioP1;P2;durP2;ratioP2
76745;SDS011;65671;49.976;20.038;2023-12-20T00:01:31;4.57;;;2.55;;
76745;SDS011;65671;49.976;20.038;2023-12-20T00:03:57;4.15;;;2.55;;
76745;SDS011;65671;49.976;20.038;2023-12-20T00:06:22;4.95;;;2.83;;
76745;SDS011;65671;49.976;20.038;2023-12-20T00:08:48;3.95;;;2.65;;
76745;SDS011;65671;49.976;20.038;2023-12-20T00:11:13;3.70;;;2.33;;
76745;SDS011;65671;49.976;20.038;2023-12-20T00:13:39;5.10;;;3.00;;
76745;SDS011;65671;49.976;20.038;2023-12-20T00:16:04;5.85;;;3.15;;
76745;SDS011;65671;49.976;20.038;2023-12-20T00:18:30;5.25;;;2.67;;
76745;SDS011;65671;49.976;20.038;2023-12-20T00:20:55;3.92;;;2.70;;
76745;SDS011;65671;49.976;20.038;2023-12-20T00:23:21;4.78;;;2.63;;
76745;SDS011;65671;49.976;20.038;2023-12-20T00:25:48;5.25;;;2.50;;
76745;SDS011;65671;49.976;20.038;2023-12-20T00:28:14;3.92;;;2.58;;
76745;SDS011;65671;49.976;20.038;2023-12-20T00:30:39;5.95;;;2.72;;
76745;SDS011;65671;49.976;20.038;2023-12-20T00:33:05;4.82;;;2.40;;
76745;SDS011;65671;49.976;20.038;2023-12-20T00:35:30;3.97;;;2.65;;
76745;SDS011;65671;49.976;20.038;2023-12-20T00:37:56;4.55;;;2.30;;
76745;SDS011;65671;49.976;20.038;2023-12-20T00:40:21;5.35;;;3.00;;
76745;SDS011;65671;49.976;20.038;2023-12-20T00:42:47;4.55;;;3.28;;
76745;SDS011;65671;49.976;20.038;2023-12-20T00:45:13;4.75;;;2.70;;
76745;SDS011;65671;49.976;20.038;2023-12-20T00:47:39;5.13;;;2.90;;
76745;SDS011;65671;49.976;20.038;2023-12-20T00:50:05;5.32;;;2.67;;
76745;SDS011;65671;49.976;20.038;2023-12-20T00:52:31;4.05;;;2.97;;
76745;SDS011;65671;49.976;20.038;2023-12-20T00:54:57;4.78;;;2.50;;
76745;SDS011;65671;49.976;20.038;2023-12-20T00:57:22;5.50;;;2.78;;
76745;SDS011;65671;49.976;20.038;2023-12-20T00:59:48;5.05;;;2.55;;
76745;SDS011;65671;49.976;20.038;2023-12-20T01:02:14;5.22;;;3.15;;
76745;SDS011;65671;49.976;20.038;2023-12-20T01:04:39;4.25;;;2.80;;
76745;SDS011;65671;49.976;20.038;2023-12-20T01:07:05;4.43;;;2.45;;
76745;SDS011;65671;49.976;20.038;2023-12-20T01:09:30;5.50;;;3.25;;
76745;SDS011;65671;49.976;20.038;2023-12-20T01:11:56;7.20;;;2.60;;
76745;SDS011;65671;49.976;20.038;2023-12-20T01:14:21;4.10;;;2.60;;
76745;SDS011;65671;49.976;20.038;2023-12-20T01:16:47;6.55;;;2.80;;
76745;SDS011;65671;49.976;20.038;2023-12-20T01:19:13;4.07;;;2.80;;
76745;SDS011;65671;49.976;20.038;2023-12-20T01:21:39;5.90;;;3.03;;
76745;SDS011;65671;49.976;20.038;2023-12-20T01:24:04;5.22;;;2.90;;
76745;SDS011;65671;49.976;20.038;2023-12-20T01:26:30;5.28;;;2.95;;
76745;SDS011;65671;49.976;20.038;2023-12-20T01:28:55;5.03;;;3.33;;
76745;SDS011;65671;49.976;20.038;2023-12-20T01:31:21;3.90;;;2.70;;
76745;SDS011;65671;49.976;20.038;2023-12-20T01:33:46;5.10;;;3.00;;
76745;SDS011;65671;49.976;20.038;2023-12-20T01:36:12;5.57;;;3.00;;
76745;SDS011;65671;49.976;20.038;2023-12-20T01:38:37;4.97;;;3.00;;
76745;SDS011;65671;49.976;20.038;2023-12-20T01:41:03;5.18;;;3.03;;
76745;SDS011;65671;49.976;20.038;2023-12-20T01:43:29;4.88;;;2.85;;
76745;SDS011;65671;49.976;20.038;2023-12-20T01:45:58;4.68;;;2.97;;
76745;SDS011;65671;49.976;20.038;2023-12-20T01:48:24;5.43;;;3.33;;
76745;SDS011;65671;49.976;20.038;2023-12-20T01:50:51;5.40;;;3.28;;
76745;SDS011;65671;49.976;20.038;2023-12-20T01:53:17;4.68;;;3.42;;
76745;SDS011;65671;49.976;20.038;2023-12-20T01:55:45;6.03;;;3.30;;
76745;SDS011;65671;49.976;20.038;2023-12-20T01:58:11;5.72;;;3.25;;
76745;SDS011;65671;49.976;20.038;2023-12-20T02:00:38;4.93;;;3.00;;
76745;SDS011;65671;49.976;20.038;2023-12-20T02:03:04;5.93;;;3.70;;
76745;SDS011;65671;49.976;20.038;2023-12-20T02:05:30;5.88;;;3.50;;
76745;SDS011;65671;49.976;20.038;2023-12-20T02:07:56;5.45;;;3.30;;
76745;SDS011;65671;49.976;20.038;2023-12-20T02:10:22;5.57;;;3.35;;
76745;SDS011;65671;49.976;20.038;2023-12-20T02:12:48;5.72;;;3.40;;
76745;SDS011;65671;49.976;20.038;2023-12-20T02:15:14;4.07;;;2.65;;
76745;SDS011;65671;49.976;20.038;2023-12-20T02:17:40;4.65;;;3.10;;
76745;SDS011;65671;49.976;20.038;2023-12-20T02:20:05;5.25;;;2.83;;
76745;SDS011;65671;49.976;20.038;2023-12-20T02:22:31;5.38;;;3.15;;
76745;SDS011;65671;49.976;20.038;2023-12-20T02:24:57;5.05;;;3.20;;
76745;SDS011;65671;49.976;20.038;2023-12-20T02:27:23;4.85;;;3.10;;
76745;SDS011;65671;49.976;20.038;2023-12-20T02:29:48;4.05;;;2.75;;
76745;SDS011;65671;49.976;20.038;2023-12-20T02:32:15;4.82;;;2.70;;
76745;SDS011;65671;49.976;20.038;2023-12-20T02:34:42;4.20;;;2.83;;
76745;SDS011;65671;49.976;20.038;2023-12-20T02:37:08;4.97;;;2.50;;
76745;SDS011;65671;49.976;20.038;2023-12-20T02:39:33;4.03;;;3.00;;
76745;SDS011;65671;49.976;20.038;2023-12-20T02:41:59;4.18;;;2.53;;
76745;SDS011;65671;49.976;20.038;2023-12-20T02:44:24;3.92;;;2.78;;
76745;SDS011;65671;49.976;20.038;2023-12-20T02:46:50;5.65;;;3.03;;
76745;SDS011;65671;49.976;20.038;2023-12-20T02:49:15;4.32;;;2.75;;
76745;SDS011;65671;49.976;20.038;2023-12-20T02:51:41;3.63;;;2.63;;
76745;SDS011;65671;49.976;20.038;2023-12-20T02:54:06;3.50;;;2.40;;
76745;SDS011;65671;49.976;20.038;2023-12-20T02:56:32;4.90;;;2.75;;
76745;SDS011;65671;49.976;20.038;2023-12-20T02:58:58;3.50;;;2.60;;
76745;SDS011;65671;49.976;20.038;2023-12-20T03:01:24;4.40;;;2.58;;
76745;SDS011;65671;49.976;20.038;2023-12-20T03:03:49;4.47;;;2.78;;
76745;SDS011;65671;49.976;20.038;2023-12-20T03:06:18;5.20;;;2.70;;
76745;SDS011;65671;49.976;20.038;2023-12-20T03:08:44;4.50;;;2.53;;
76745;SDS011;65671;49.976;20.038;2023-12-20T03:11:10;4.32;;;2.70;;
76745;SDS011;65671;49.976;20.038;2023-12-20T03:13:36;3.78;;;2.47;;
76745;SDS011;65671;49.976;20.038;2023-12-20T03:16:07;3.03;;;2.20;;
76745;SDS011;65671;49.976;20.038;2023-12-20T03:18:33;4.47;;;2.95;;
76745;SDS011;65671;49.976;20.038;2023-12-20T03:20:59;5.32;;;3.05;;
76745;SDS011;65671;49.976;20.038;2023-12-20T03:23:24;3.20;;;2.42;;
76745;SDS011;65671;49.976;20.038;2023-12-20T03:25:51;4.43;;;2.83;;
76745;SDS011;65671;49.976;20.038;2023-12-20T03:28:16;4.93;;;2.95;;
76745;SDS011;65671;49.976;20.038;2023-12-20T03:30:42;5.25;;;2.90;;
76745;SDS011;65671;49.976;20.038;2023-12-20T03:33:07;4.43;;;2.65;;
76745;SDS011;65671;49.976;20.038;2023-12-20T03:35:33;4.43;;;2.72;;
76745;SDS011;65671;49.976;20.038;2023-12-20T03:37:58;3.70;;;2.33;;
76745;SDS011;65671;49.976;20.038;2023-12-20T03:40:25;4.57;;;2.22;;
76745;SDS011;65671;49.976;20.038;2023-12-20T03:42:51;3.92;;;2.80;;
76745;SDS011;65671;49.976;20.038;2023-12-20T03:45:16;4.07;;;2.45;;
76745;SDS011;65671;49.976;20.038;2023-12-20T03:47:41;4.22;;;2.72;;
76745;SDS011;65671;49.976;20.038;2023-12-20T03:50:07;4.07;;;2.50;;
76745;SDS011;65671;49.976;20.038;2023-12-20T03:52:32;5.95;;;2.67;;
76745;SDS011;65671;49.976;20.038;2023-12-20T03:54:58;4.35;;;2.58;;
76745;SDS011;65671;49.976;20.038;2023-12-20T03:57:23;5.30;;;3.05;;
76745;SDS011;65671;49.976;20.038;2023-12-20T03:59:49;6.43;;;2.95;;
76745;SDS011;65671;49.976;20.038;2023-12-20T04:02:14;4.28;;;2.72;;
76745;SDS011;65671;49.976;20.038;2023-12-20T04:04:40;4.53;;;2.75;;
76745;SDS011;65671;49.976;20.038;2023-12-20T04:07:05;3.60;;;2.55;;
76745;SDS011;65671;49.976;20.038;2023-12-20T04:09:31;3.47;;;2.55;;
76745;SDS011;65671;49.976;20.038;2023-12-20T04:11:56;5.60;;;2.78;;
76745;SDS011;65671;49.976;20.038;2023-12-20T04:14:21;4.88;;;2.75;;
76745;SDS011;65671;49.976;20.038;2023-12-20T04:16:47;4.25;;;3.03;;
76745;SDS011;65671;49.976;20.038;2023-12-20T04:19:12;4.28;;;3.00;;
76745;SDS011;65671;49.976;20.038;2023-12-20T04:21:38;3.17;;;2.42;;
76745;SDS011;65671;49.976;20.038;2023-12-20T04:24:03;5.13;;;3.10;;
76745;SDS011;65671;49.976;20.038;2023-12-20T04:26:29;4.20;;;2.90;;
76745;SDS011;65671;49.976;20.038;2023-12-20T04:28:54;4.88;;;2.70;;
76745;SDS011;65671;49.976;20.038;2023-12-20T04:31:20;3.97;;;2.80;;
76745;SDS011;65671;49.976;20.038;2023-12-20T04:33:45;5.60;;;2.63;;
76745;SDS011;65671;49.976;20.038;2023-12-20T04:36:10;4.32;;;2.60;;
76745;SDS011;65671;49.976;20.038;2023-12-20T04:38:36;3.80;;;2.33;;
76745;SDS011;65671;49.976;20.038;2023-12-20T04:41:01;3.90;;;2.60;;
76745;SDS011;65671;49.976;20.038;2023-12-20T04:43:27;4.78;;;2.75;;
76745;SDS011;65671;49.976;20.038;2023-12-20T04:45:54;5.97;;;3.05;;
76745;SDS011;65671;49.976;20.038;2023-12-20T04:48:20;5.05;;;3.05;;
76745;SDS011;65671;49.976;20.038;2023-12-20T04:50:46;5.53;;;3.25;;
76745;SDS011;65671;49.976;20.038;2023-12-20T04:53:11;7.97;;;3.42;;
76745;SDS011;65671;49.976;20.038;2023-12-20T04:55:37;4.80;;;3.47;;
76745;SDS011;65671;49.976;20.038;2023-12-20T04:58:02;5.47;;;3.40;;
76745;SDS011;65671;49.976;20.038;2023-12-20T05:00:27;7.20;;;3.78;;
76745;SDS011;65671;49.976;20.038;2023-12-20T05:02:53;6.35;;;3.53;;
76745;SDS011;65671;49.976;20.038;2023-12-20T05:05:19;6.88;;;3.97;;
76745;SDS011;65671;49.976;20.038;2023-12-20T05:07:44;7.95;;;3.72;;
76745;SDS011;65671;49.976;20.038;2023-12-20T05:10:10;8.30;;;3.95;;
76745;SDS011;65671;49.976;20.038;2023-12-20T05:12:35;8.10;;;4.10;;
76745;SDS011;65671;49.976;20.038;2023-12-20T05:15:01;5.75;;;4.35;;
76745;SDS011;65671;49.976;20.038;2023-12-20T05:17:26;6.47;;;4.13;;
76745;SDS011;65671;49.976;20.038;2023-12-20T05:19:52;6.93;;;4.70;;
76745;SDS011;65671;49.976;20.038;2023-12-20T05:22:18;9.63;;;4.75;;
76745;SDS011;65671;49.976;20.038;2023-12-20T05:24:44;7.13;;;4.50;;
76745;SDS011;65671;49.976;20.038;2023-12-20T05:27:10;8.52;;;5.13;;
76745;SDS011;65671;49.976;20.038;2023-12-20T05:29:36;8.43;;;5.25;;
76745;SDS011;65671;49.976;20.038;2023-12-20T05:32:01;8.23;;;4.30;;
76745;SDS011;65671;49.976;20.038;2023-12-20T05:34:29;7.38;;;4.47;;
76745;SDS011;65671;49.976;20.038;2023-12-20T05:36:55;8.63;;;4.45;;
76745;SDS011;65671;49.976;20.038;2023-12-20T05:39:21;6.75;;;4.35;;
76745;SDS011;65671;49.976;20.038;2023-12-20T05:41:46;8.00;;;4.75;;
76745;SDS011;65671;49.976;20.038;2023-12-20T05:44:13;8.98;;;4.00;;
76745;SDS011;65671;49.976;20.038;2023-12-20T05:46:38;6.47;;;3.42;;
76745;SDS011;65671;49.976;20.038;2023-12-20T05:49:05;8.05;;;4.35;;
76745;SDS011;65671;49.976;20.038;2023-12-20T05:51:30;7.72;;;4.05;;
76745;SDS011;65671;49.976;20.038;2023-12-20T05:53:56;6.63;;;4.03;;
76745;SDS011;65671;49.976;20.038;2023-12-20T05:56:21;7.07;;;4.35;;
76745;SDS011;65671;49.976;20.038;2023-12-20T05:58:47;6.55;;;3.88;;
76745;SDS011;65671;49.976;20.038;2023-12-20T06:01:14;6.63;;;3.78;;
76745;SDS011;65671;49.976;20.038;2023-12-20T06:03:43;8.30;;;3.78;;
76745;SDS011;65671;49.976;20.038;2023-12-20T06:06:08;6.70;;;3.95;;
76745;SDS011;65671;49.976;20.038;2023-12-20T06:08:34;6.85;;;3.78;;
76745;SDS011;65671;49.976;20.038;2023-12-20T06:11:01;7.65;;;4.03;;
76745;SDS011;65671;49.976;20.038;2023-12-20T06:13:26;6.50;;;4.00;;
76745;SDS011;65671;49.976;20.038;2023-12-20T06:15:52;8.07;;;3.97;;
76745;SDS011;65671;49.976;20.038;2023-12-20T06:18:19;6.88;;;4.03;;
76745;SDS011;65671;49.976;20.038;2023-12-20T06:20:44;6.50;;;3.53;;
76745;SDS011;65671;49.976;20.038;2023-12-20T06:23:10;5.47;;;3.65;;
76745;SDS011;65671;49.976;20.038;2023-12-20T06:25:35;5.18;;;4.03;;
76745;SDS011;65671;49.976;20.038;2023-12-20T06:28:01;6.80;;;4.22;;
76745;SDS011;65671;49.976;20.038;2023-12-20T06:30:26;5.10;;;3.63;;
76745;SDS011;65671;49.976;20.038;2023-12-20T06:32:53;4.53;;;3.33;;
76745;SDS011;65671;49.976;20.038;2023-12-20T06:35:19;6.28;;;3.80;;
76745;SDS011;65671;49.976;20.038;2023-12-20T06:37:45;7.85;;;3.97;;
76745;SDS011;65671;49.976;20.038;2023-12-20T06:40:10;7.32;;;3.63;;
76745;SDS011;65671;49.976;20.038;2023-12-20T06:42:36;6.95;;;3.85;;
76745;SDS011;65671;49.976;20.038;2023-12-20T06:45:02;7.78;;;3.78;;
76745;SDS011;65671;49.976;20.038;2023-12-20T06:47:28;7.95;;;4.47;;
76745;SDS011;65671;49.976;20.038;2023-12-20T06:49:54;5.95;;;4.20;;
76745;SDS011;65671;49.976;20.038;2023-12-20T06:52:19;6.28;;;3.88;;
76745;SDS011;65671;49.976;20.038;2023-12-20T06:54:44;7.68;;;4.30;;
76745;SDS011;65671;49.976;20.038;2023-12-20T06:57:10;7.53;;;5.05;;
76745;SDS011;65671;49.976;20.038;2023-12-20T06:59:39;9.15;;;5.20;;
76745;SDS011;65671;49.976;20.038;2023-12-20T07:02:05;8.77;;;4.95;;
76745;SDS011;65671;49.976;20.038;2023-12-20T07:04:31;8.90;;;5.22;;
76745;SDS011;65671;49.976;20.038;2023-12-20T07:06:56;9.63;;;5.18;;
76745;SDS011;65671;49.976;20.038;2023-12-20T07:09:25;7.97;;;5.28;;
76745;SDS011;65671;49.976;20.038;2023-12-20T07:11:51;11.02;;;5.85;;
76745;SDS011;65671;49.976;20.038;2023-12-20T07:14:17;8.52;;;5.25;;
76745;SDS011;65671;49.976;20.038;2023-12-20T07:16:42;9.73;;;5.35;;
76745;SDS011;65671;49.976;20.038;2023-12-20T07:19:07;10.88;;;5.18;;
76745;SDS011;65671;49.976;20.038;2023-12-20T07:21:33;9.68;;;5.13;;
76745;SDS011;65671;49.976;20.038;2023-12-20T07:23:58;9.60;;;6.10;;
76745;SDS011;65671;49.976;20.038;2023-12-20T07:26:24;9.98;;;5.25;;
76745;SDS011;65671;49.976;20.038;2023-12-20T07:28:49;10.27;;;5.85;;
76745;SDS011;65671;49.976;20.038;2023-12-20T07:31:15;11.10;;;6.28;;
76745;SDS011;65671;49.976;20.038;2023-12-20T07:33:41;11.70;;;6.75;;
76745;SDS011;65671;49.976;20.038;2023-12-20T07:36:07;12.32;;;6.80;;
76745;SDS011;65671;49.976;20.038;2023-12-20T07:38:32;10.32;;;6.40;;
76745;SDS011;65671;49.976;20.038;2023-12-20T07:40:58;11.88;;;6.93;;
76745;SDS011;65671;49.976;20.038;2023-12-20T07:43:24;11.05;;;6.88;;
76745;SDS011;65671;49.976;20.038;2023-12-20T07:45:50;12.38;;;6.57;;
76745;SDS011;65671;49.976;20.038;2023-12-20T07:48:15;13.60;;;7.45;;
76745;SDS011;65671;49.976;20.038;2023-12-20T07:50:41;13.55;;;6.68;;
76745;SDS011;65671;49.976;20.038;2023-12-20T07:53:07;9.80;;;7.10;;
76745;SDS011;65671;49.976;20.038;2023-12-20T07:55:33;12.13;;;7.63;;
76745;SDS011;65671;49.976;20.038;2023-12-20T07:57:59;10.95;;;6.75;;
76745;SDS011;65671;49.976;20.038;2023-12-20T08:00:25;11.85;;;7.47;;
76745;SDS011;65671;49.976;20.038;2023-12-20T08:02:51;13.13;;;7.28;;
76745;SDS011;65671;49.976;20.038;2023-12-20T08:05:16;12.23;;;7.60;;
76745;SDS011;65671;49.976;20.038;2023-12-20T08:07:42;11.70;;;7.53;;
76745;SDS011;65671;49.976;20.038;2023-12-20T08:10:07;12.65;;;7.97;;
76745;SDS011;65671;49.976;20.038;2023-12-20T08:12:33;15.45;;;9.25;;
76745;SDS011;65671;49.976;20.038;2023-12-20T08:14:59;12.02;;;7.88;;
76745;SDS011;65671;49.976;20.038;2023-12-20T08:17:25;12.60;;;8.82;;
76745;SDS011;65671;49.976;20.038;2023-12-20T08:19:50;12.85;;;8.68;;
76745;SDS011;65671;49.976;20.038;2023-12-20T08:22:16;11.57;;;7.75;;
76745;SDS011;65671;49.976;20.038;2023-12-20T08:24:42;12.57;;;7.60;;
76745;SDS011;65671;49.976;20.038;2023-12-20T08:27:08;11.98;;;8.25;;
76745;SDS011;65671;49.976;20.038;2023-12-20T08:29:34;12.30;;;8.55;;
76745;SDS011;65671;49.976;20.038;2023-12-20T08:32:00;14.75;;;8.63;;
76745;SDS011;65671;49.976;20.038;2023-12-20T08:34:26;13.88;;;8.60;;
76745;SDS011;65671;49.976;20.038;2023-12-20T08:36:51;15.32;;;8.95;;
76745;SDS011;65671;49.976;20.038;2023-12-20T08:39:17;13.23;;;8.23;;
76745;SDS011;65671;49.976;20.038;2023-12-20T08:41:42;13.98;;;8.30;;
76745;SDS011;65671;49.976;20.038;2023-12-20T08:44:08;15.70;;;9.20;;
76745;SDS011;65671;49.976;20.038;2023-12-20T08:46:34;13.35;;;7.65;;
76745;SDS011;65671;49.976;20.038;2023-12-20T08:49:00;13.55;;;8.63;;
76745;SDS011;65671;49.976;20.038;2023-12-20T08:51:27;15.45;;;9.27;;
76745;SDS011;65671;49.976;20.038;2023-12-20T08:53:52;13.27;;;8.43;;
76745;SDS011;65671;49.976;20.038;2023-12-20T08:56:18;12.93;;;8.60;;
76745;SDS011;65671;49.976;20.038;2023-12-20T08:58:44;11.93;;;8.48;;
76745;SDS011;65671;49.976;20.038;2023-12-20T09:01:10;14.02;;;8.50;;
76745;SDS011;65671;49.976;20.038;2023-12-20T09:03:36;12.13;;;6.88;;
76745;SDS011;65671;49.976;20.038;2023-12-20T09:06:01;14.45;;;8.50;;
76745;SDS011;65671;49.976;20.038;2023-12-20T09:08:27;13.77;;;8.55;;
76745;SDS011;65671;49.976;20.038;2023-12-20T09:10:52;11.43;;;8.38;;
76745;SDS011;65671;49.976;20.038;2023-12-20T09:13:18;15.38;;;8.32;;
76745;SDS011;65671;49.976;20.038;2023-12-20T09:15:43;14.07;;;7.68;;
76745;SDS011;65671;49.976;20.038;2023-12-20T09:18:09;12.75;;;7.72;;
76745;SDS011;65671;49.976;20.038;2023-12-20T09:20:34;10.93;;;7.00;;
76745;SDS011;65671;49.976;20.038;2023-12-20T09:23:00;9.52;;;6.65;;
76745;SDS011;65671;49.976;20.038;2023-12-20T09:25:26;14.23;;;8.32;;
76745;SDS011;65671;49.976;20.038;2023-12-20T09:27:51;12.38;;;8.25;;
76745;SDS011;65671;49.976;20.038;2023-12-20T09:30:17;16.33;;;8.95;;
76745;SDS011;65671;49.976;20.038;2023-12-20T09:32:43;11.90;;;7.55;;
76745;SDS011;65671;49.976;20.038;2023-12-20T09:35:09;11.50;;;7.53;;
76745;SDS011;65671;49.976;20.038;2023-12-20T09:37:34;12.98;;;8.05;;
76745;SDS011;65671;49.976;20.038;2023-12-20T09:40:00;15.20;;;8.35;;
76745;SDS011;65671;49.976;20.038;2023-12-20T09:42:39;12.60;;;7.82;;
76745;SDS011;65671;49.976;20.038;2023-12-20T09:45:14;11.43;;;7.85;;
76745;SDS011;65671;49.976;20.038;2023-12-20T09:47:43;12.40;;;7.70;;
76745;SDS011;65671;49.976;20.038;2023-12-20T09:50:09;11.00;;;7.60;;
76745;SDS011;65671;49.976;20.038;2023-12-20T09:52:36;11.57;;;7.75;;
76745;SDS011;65671;49.976;20.038;2023-12-20T09:55:03;12.68;;;7.50;;
76745;SDS011;65671;49.976;20.038;2023-12-20T09:57:31;11.23;;;7.22;;
76745;SDS011;65671;49.976;20.038;2023-12-20T09:59:57;12.75;;;6.82;;
76745;SDS011;65671;49.976;20.038;2023-12-20T10:02:23;12.18;;;7.22;;
76745;SDS011;65671;49.976;20.038;2023-12-20T10:04:52;10.45;;;6.50;;
76745;SDS011;65671;49.976;20.038;2023-12-20T10:09:43;9.32;;;6.35;;
76745;SDS011;65671;49.976;20.038;2023-12-20T10:12:09;11.60;;;6.55;;
76745;SDS011;65671;49.976;20.038;2023-12-20T10:14:34;11.38;;;7.15;;
76745;SDS011;65671;49.976;20.038;2023-12-20T10:17:03;11.55;;;6.30;;
76745;SDS011;65671;49.976;20.038;2023-12-20T10:19:29;11.55;;;6.68;;
76745;SDS011;65671;49.976;20.038;2023-12-20T10:21:55;12.25;;;6.85;;
76745;SDS011;65671;49.976;20.038;2023-12-20T10:24:21;12.60;;;7.63;;
76745;SDS011;65671;49.976;20.038;2023-12-20T10:26:46;11.93;;;6.57;;
76745;SDS011;65671;49.976;20.038;2023-12-20T10:29:12;11.32;;;6.68;;
76745;SDS011;65671;49.976;20.038;2023-12-20T10:31:37;12.13;;;7.03;;
76745;SDS011;65671;49.976;20.038;2023-12-20T10:34:07;9.75;;;6.00;;
76745;SDS011;65671;49.976;20.038;2023-12-20T10:36:33;8.60;;;5.60;;
76745;SDS011;65671;49.976;20.038;2023-12-20T10:38:58;9.05;;;6.65;;
76745;SDS011;65671;49.976;20.038;2023-12-20T10:41:25;10.50;;;6.75;;
76745;SDS011;65671;49.976;20.038;2023-12-20T10:43:53;8.82;;;6.53;;
76745;SDS011;65671;49.976;20.038;2023-12-20T10:46:38;8.93;;;6.35;;
76745;SDS011;65671;49.976;20.038;2023-12-20T10:49:05;9.48;;;6.13;;
76745;SDS011;65671;49.976;20.038;2023-12-20T10:51:33;8.30;;;5.35;;
76745;SDS011;65671;49.976;20.038;2023-12-20T10:54:00;7.85;;;5.05;;
76745;SDS011;65671;49.976;20.038;2023-12-20T10:56:25;9.20;;;4.43;;
76745;SDS011;65671;49.976;20.038;2023-12-20T10:58:57;7.57;;;4.03;;
76745;SDS011;65671;49.976;20.038;2023-12-20T11:01:26;5.78;;;3.88;;
76745;SDS011;65671;49.976;20.038;2023-12-20T11:03:54;6.60;;;3.88;;
76745;SDS011;65671;49.976;20.038;2023-12-20T11:09:12;4.72;;;3.47;;
76745;SDS011;65671;49.976;20.038;2023-12-20T11:15:03;4.50;;;3.03;;
76745;SDS011;65671;49.976;20.038;2023-12-20T11:17:29;6.30;;;3.75;;
76745;SDS011;65671;49.976;20.038;2023-12-20T11:22:25;7.82;;;4.18;;
76745;SDS011;65671;49.976;20.038;2023-12-20T11:24:53;6.95;;;3.45;;
76745;SDS011;65671;49.976;20.038;2023-12-20T11:27:19;5.85;;;4.28;;
76745;SDS011;65671;49.976;20.038;2023-12-20T11:29:51;5.20;;;3.80;;
76745;SDS011;65671;49.976;20.038;2023-12-20T11:34:53;6.65;;;4.70;;
76745;SDS011;65671;49.976;20.038;2023-12-20T11:37:45;7.35;;;5.32;;
76745;SDS011;65671;49.976;20.038;2023-12-20T11:40:13;5.78;;;4.35;;
76745;SDS011;65671;49.976;20.038;2023-12-20T11:42:40;5.38;;;3.95;;
76745;SDS011;65671;49.976;20.038;2023-12-20T11:45:11;7.97;;;5.05;;
76745;SDS011;65671;49.976;20.038;2023-12-20T11:47:40;8.07;;;6.05;;
76745;SDS011;65671;49.976;20.038;2023-12-20T11:50:10;6.22;;;3.55;;
76745;SDS011;65671;49.976;20.038;2023-12-20T11:52:36;7.10;;;4.18;;
76745;SDS011;65671;49.976;20.038;2023-12-20T11:55:02;6.20;;;4.00;;
76745;SDS011;65671;49.976;20.038;2023-12-20T11:57:28;6.72;;;4.28;;
76745;SDS011;65671;49.976;20.038;2023-12-20T11:59:55;6.28;;;3.92;;
76745;SDS011;65671;49.976;20.038;2023-12-20T12:02:21;8.75;;;4.40;;
76745;SDS011;65671;49.976;20.038;2023-12-20T12:04:48;7.32;;;4.55;;
76745;SDS011;65671;49.976;20.038;2023-12-20T12:07:14;8.30;;;5.05;;
76745;SDS011;65671;49.976;20.038;2023-12-20T12:09:39;6.57;;;3.97;;
76745;SDS011;65671;49.976;20.038;2023-12-20T12:12:05;6.60;;;4.30;;
76745;SDS011;65671;49.976;20.038;2023-12-20T12:14:31;7.47;;;4.10;;
76745;SDS011;65671;49.976;20.038;2023-12-20T12:16:57;7.95;;;4.53;;
76745;SDS011;65671;49.976;20.038;2023-12-20T12:19:23;7.75;;;4.38;;
76745;SDS011;65671;49.976;20.038;2023-12-20T12:21:49;7.03;;;3.60;;
76745;SDS011;65671;49.976;20.038;2023-12-20T12:24:16;7.55;;;3.75;;
76745;SDS011;65671;49.976;20.038;2023-12-20T12:26:50;7.22;;;4.63;;
76745;SDS011;65671;49.976;20.038;2023-12-20T12:29:16;6.15;;;4.50;;
76745;SDS011;65671;49.976;20.038;2023-12-20T12:31:41;8.38;;;4.78;;
76745;SDS011;65671;49.976;20.038;2023-12-20T12:34:07;6.97;;;4.57;;
76745;SDS011;65671;49.976;20.038;2023-12-20T12:36:34;6.28;;;3.92;;
76745;SDS011;65671;49.976;20.038;2023-12-20T12:39:02;5.63;;;3.53;;
76745;SDS011;65671;49.976;20.038;2023-12-20T12:41:29;8.77;;;4.45;;
76745;SDS011;65671;49.976;20.038;2023-12-20T12:43:55;8.00;;;4.78;;
76745;SDS011;65671;49.976;20.038;2023-12-20T12:46:22;6.95;;;4.55;;
76745;SDS011;65671;49.976;20.038;2023-12-20T12:48:48;7.05;;;3.95;;
76745;SDS011;65671;49.976;20.038;2023-12-20T12:51:15;6.03;;;3.75;;
76745;SDS011;65671;49.976;20.038;2023-12-20T12:53:41;5.72;;;4.20;;
76745;SDS011;65671;49.976;20.038;2023-12-20T12:56:07;4.82;;;3.90;;
76745;SDS011;65671;49.976;20.038;2023-12-20T12:58:33;5.80;;;3.90;;
76745;SDS011;65671;49.976;20.038;2023-12-20T13:00:59;7.32;;;4.00;;
76745;SDS011;65671;49.976;20.038;2023-12-20T13:03:24;7.47;;;4.80;;
76745;SDS011;65671;49.976;20.038;2023-12-20T13:05:50;9.70;;;4.35;;
76745;SDS011;65671;49.976;20.038;2023-12-20T13:08:15;6.70;;;4.20;;
76745;SDS011;65671;49.976;20.038;2023-12-20T13:10:41;8.45;;;4.13;;
76745;SDS011;65671;49.976;20.038;2023-12-20T13:13:07;9.02;;;4.93;;
76745;SDS011;65671;49.976;20.038;2023-12-20T13:15:32;7.35;;;4.45;;
76745;SDS011;65671;49.976;20.038;2023-12-20T13:17:58;7.50;;;4.63;;
76745;SDS011;65671;49.976;20.038;2023-12-20T13:20:23;7.32;;;3.95;;
76745;SDS011;65671;49.976;20.038;2023-12-20T13:22:49;5.88;;;4.65;;
76745;SDS011;65671;49.976;20.038;2023-12-20T13:25:14;6.28;;;3.97;;
76745;SDS011;65671;49.976;20.038;2023-12-20T13:27:40;6.68;;;4.55;;
76745;SDS011;65671;49.976;20.038;2023-12-20T13:30:07;5.97;;;3.58;;
76745;SDS011;65671;49.976;20.038;2023-12-20T13:32:32;5.38;;;3.72;;
76745;SDS011;65671;49.976;20.038;2023-12-20T13:34:58;6.00;;;3.90;;
76745;SDS011;65671;49.976;20.038;2023-12-20T13:37:23;5.97;;;3.65;;
76745;SDS011;65671;49.976;20.038;2023-12-20T13:39:49;7.10;;;4.50;;
76745;SDS011;65671;49.976;20.038;2023-12-20T13:42:14;7.35;;;4.45;;
76745;SDS011;65671;49.976;20.038;2023-12-20T13:44:40;5.80;;;3.80;;
76745;SDS011;65671;49.976;20.038;2023-12-20T13:47:05;8.05;;;4.55;;
76745;SDS011;65671;49.976;20.038;2023-12-20T13:49:31;8.18;;;4.70;;
76745;SDS011;65671;49.976;20.038;2023-12-20T13:51:57;8.18;;;4.55;;
76745;SDS011;65671;49.976;20.038;2023-12-20T13:54:23;6.80;;;4.53;;
76745;SDS011;65671;49.976;20.038;2023-12-20T13:56:49;16.73;;;7.13;;
76745;SDS011;65671;49.976;20.038;2023-12-20T13:59:14;6.75;;;4.72;;
76745;SDS011;65671;49.976;20.038;2023-12-20T14:01:40;13.95;;;6.75;;
76745;SDS011;65671;49.976;20.038;2023-12-20T14:04:06;8.13;;;5.15;;
76745;SDS011;65671;49.976;20.038;2023-12-20T14:06:32;8.27;;;5.03;;
76745;SDS011;65671;49.976;20.038;2023-12-20T14:08:58;11.07;;;5.95;;
76745;SDS011;65671;49.976;20.038;2023-12-20T14:11:25;12.20;;;5.97;;
76745;SDS011;65671;49.976;20.038;2023-12-20T14:13:51;10.05;;;5.15;;
76745;SDS011;65671;49.976;20.038;2023-12-20T14:16:16;8.05;;;4.75;;
76745;SDS011;65671;49.976;20.038;2023-12-20T14:18:42;11.50;;;5.45;;
76745;SDS011;65671;49.976;20.038;2023-12-20T14:21:07;8.35;;;4.40;;
76745;SDS011;65671;49.976;20.038;2023-12-20T14:23:33;7.32;;;4.82;;
76745;SDS011;65671;49.976;20.038;2023-12-20T14:25:59;7.45;;;4.35;;
76745;SDS011;65671;49.976;20.038;2023-12-20T14:28:25;8.70;;;4.53;;
76745;SDS011;65671;49.976;20.038;2023-12-20T14:30:50;6.85;;;3.88;;
76745;SDS011;65671;49.976;20.038;2023-12-20T14:33:16;11.52;;;5.13;;
76745;SDS011;65671;49.976;20.038;2023-12-20T14:35:41;10.88;;;5.50;;
76745;SDS011;65671;49.976;20.038;2023-12-20T14:38:09;8.25;;;4.65;;